createdAt,value
2019-03-30T00:03:01.590Z,3.90
2019-03-30T00:08:05.443Z,4.02
2019-03-30T00:13:09.387Z,4.09
2019-03-30T00:18:13.156Z,3.93
2019-03-30T00:23:17.064Z,3.75
2019-03-30T00:28:20.799Z,3.77
2019-03-30T00:33:24.689Z,3.85
2019-03-30T00:38:28.421Z,3.67
2019-03-30T00:43:32.218Z,3.39
2019-03-30T00:48:36.029Z,3.16
2019-03-30T00:53:40.147Z,3.37
2019-03-30T00:58:44.287Z,3.41
2019-03-30T01:03:48.032Z,3.28
2019-03-30T01:08:51.904Z,2.92
2019-03-30T01:13:55.707Z,2.74
2019-03-30T01:18:59.472Z,2.74
2019-03-30T01:24:03.253Z,2.91
2019-03-30T01:29:07.222Z,2.80
2019-03-30T01:34:11.110Z,2.71
2019-03-30T01:39:15.070Z,2.85
2019-03-30T01:44:18.893Z,2.90
2019-03-30T01:49:23.267Z,2.80
2019-03-30T01:54:27.345Z,2.76
2019-03-30T01:59:31.085Z,2.64
2019-03-30T02:04:34.947Z,2.46
2019-03-30T02:09:38.889Z,2.38
2019-03-30T02:14:42.955Z,2.54
2019-03-30T02:19:47.233Z,2.62
2019-03-30T02:24:51.183Z,2.43
2019-03-30T02:29:54.971Z,2.21
2019-03-30T02:34:58.767Z,2.68
2019-03-30T02:40:02.559Z,2.88
2019-03-30T02:45:06.652Z,2.84
2019-03-30T02:50:10.663Z,2.55
2019-03-30T02:55:14.407Z,2.53
2019-03-30T03:00:19.244Z,2.61
2019-03-30T03:05:23.046Z,2.16
2019-03-30T03:10:26.915Z,2.03
2019-03-30T03:15:30.788Z,1.92
2019-03-30T03:20:34.778Z,1.89
2019-03-30T03:25:38.509Z,1.42
2019-03-30T03:30:42.307Z,1.31
2019-03-30T03:35:46.098Z,1.56
2019-03-30T03:40:50.259Z,1.37
2019-03-30T03:45:54.267Z,1.53
2019-03-30T03:51:02.781Z,1.56
2019-03-30T03:56:07.364Z,1.92
2019-03-30T04:01:14.155Z,2.12
2019-03-30T04:06:21.385Z,2.23
2019-03-30T04:11:30.250Z,2.23
2019-03-30T04:16:34.209Z,2.01
2019-03-30T04:21:44.507Z,1.55
2019-03-30T04:26:43.704Z,1.28
2019-03-30T04:31:47.508Z,1.33
2019-03-30T04:36:51.339Z,1.14
2019-03-30T04:41:55.297Z,1.37
2019-03-30T04:46:59.658Z,1.31
2019-03-30T04:52:03.935Z,1.24
2019-03-30T04:57:07.897Z,1.06
2019-03-30T05:02:11.707Z,0.82
2019-03-30T05:07:15.995Z,0.72
2019-03-30T05:12:19.888Z,1.09
2019-03-30T05:17:23.801Z,1.18
2019-03-30T05:22:27.848Z,1.28
2019-03-30T05:27:32.132Z,1.46
2019-03-30T05:32:36.012Z,2.06
2019-03-30T05:37:39.885Z,2.55
2019-03-30T05:42:43.686Z,2.47
2019-03-30T05:47:47.441Z,2.73
2019-03-30T05:52:51.237Z,2.96
2019-03-30T05:57:55.230Z,3.05
2019-03-30T06:02:59.031Z,3.20
2019-03-30T06:08:02.765Z,3.50
2019-03-30T06:13:06.663Z,5.22
2019-03-30T06:18:11.506Z,6.48
2019-03-30T06:23:15.458Z,7.12
2019-03-30T06:28:19.373Z,7.10
2019-03-30T06:33:23.334Z,5.86
2019-03-30T06:38:27.470Z,5.73
2019-03-30T06:43:31.216Z,5.69
2019-03-30T06:48:36.255Z,5.84
2019-03-30T06:53:40.278Z,6.00
2019-03-30T06:58:44.158Z,6.26
2019-03-30T07:03:48.091Z,6.22
2019-03-30T07:08:55.017Z,5.83
2019-03-30T07:14:03.279Z,5.92
2019-03-30T07:19:07.113Z,6.26
2019-03-30T07:24:10.905Z,6.41
2019-03-30T07:29:15.155Z,6.74
2019-03-30T07:34:18.920Z,7.08
2019-03-30T07:39:23.034Z,7.40
2019-03-30T07:44:26.939Z,7.52
2019-03-30T07:49:30.715Z,7.98
2019-03-30T07:54:34.838Z,8.29
2019-03-30T07:59:38.815Z,8.49
2019-03-30T08:04:42.622Z,8.71
2019-03-30T08:09:46.411Z,8.67
2019-03-30T08:14:50.185Z,8.90
2019-03-30T08:19:54.063Z,9.15
2019-03-30T08:24:57.853Z,9.58
2019-03-30T08:30:01.915Z,9.86
2019-03-30T08:35:07.299Z,9.79
2019-03-30T08:40:11.364Z,10.04
2019-03-30T08:45:15.351Z,9.99
2019-03-30T08:50:19.128Z,10.21
2019-03-30T08:55:23.023Z,10.20
2019-03-30T09:00:43.240Z,10.48
2019-03-30T09:05:47.222Z,10.60
2019-03-30T09:10:51.019Z,10.67
2019-03-30T09:15:55.094Z,10.92
2019-03-30T09:20:59.052Z,11.02
2019-03-30T09:26:03.398Z,11.35
2019-03-30T09:31:07.324Z,11.06
2019-03-30T09:36:11.144Z,11.21
2019-03-30T09:41:14.906Z,11.54
2019-03-30T09:46:19.009Z,11.63
2019-03-30T09:51:22.841Z,11.76
2019-03-30T09:56:26.638Z,11.69
2019-03-30T10:01:30.813Z,12.14
2019-03-30T10:06:34.882Z,12.09
2019-03-30T10:11:38.839Z,12.15
2019-03-30T10:16:42.725Z,12.37
2019-03-30T10:21:46.684Z,12.56
2019-03-30T10:26:50.457Z,12.91
2019-03-30T10:31:54.364Z,13.39
2019-03-30T10:36:58.248Z,13.21
2019-03-30T10:42:02.072Z,13.42
2019-03-30T10:48:29.994Z,13.76
2019-03-30T10:53:33.782Z,13.56
2019-03-30T10:58:38.076Z,13.34
2019-03-30T11:03:41.822Z,13.61
2019-03-30T11:08:45.635Z,13.93
2019-03-30T11:13:49.390Z,14.12
2019-03-30T11:18:53.506Z,13.91
2019-03-30T11:23:57.288Z,14.39
2019-03-30T11:29:01.048Z,14.49
2019-03-30T11:34:05.445Z,14.55
2019-03-30T11:39:09.465Z,14.63
2019-03-30T11:44:13.227Z,14.80
2019-03-30T11:49:17.222Z,15.03
2019-03-30T11:54:21.152Z,15.28
2019-03-30T11:59:25.005Z,15.51
2019-03-30T12:04:29.042Z,15.46
2019-03-30T12:09:32.940Z,15.32
2019-03-30T12:14:36.844Z,15.35
2019-03-30T12:19:40.593Z,15.62
2019-03-30T12:24:44.561Z,15.70
2019-03-30T12:29:48.835Z,15.66
2019-03-30T12:34:53.101Z,15.93
2019-03-30T12:39:58.423Z,15.95
2019-03-30T12:45:02.886Z,16.06
2019-03-30T12:50:06.999Z,16.10
2019-03-30T12:55:11.128Z,16.06
2019-03-30T13:00:15.416Z,16.17
2019-03-30T13:05:19.522Z,16.25
2019-03-30T13:10:23.441Z,16.55
2019-03-30T13:15:27.349Z,16.59
2019-03-30T13:20:31.507Z,16.73
2019-03-30T13:25:35.338Z,16.71
2019-03-30T13:30:39.561Z,16.66
2019-03-30T13:35:43.350Z,16.51
2019-03-30T13:40:47.921Z,16.84
2019-03-30T14:01:52.350Z,17.60
2019-03-30T14:07:24.591Z,17.46
2019-03-30T14:12:28.509Z,17.27
2019-03-30T14:17:32.507Z,17.29
2019-03-30T14:22:36.774Z,17.56
2019-03-30T14:27:40.792Z,17.50
2019-03-30T14:32:45.078Z,17.61
2019-03-30T14:37:49.372Z,17.70
2019-03-30T14:42:53.473Z,17.52
2019-03-30T14:47:58.177Z,17.51
2019-03-30T14:53:02.770Z,17.79
2019-03-30T14:58:08.122Z,17.59
2019-03-30T15:03:12.272Z,17.39
2019-03-30T15:32:29.404Z,17.24
2019-03-30T15:37:33.492Z,17.02
2019-03-30T15:42:40.085Z,17.06
2019-03-30T15:47:43.137Z,16.99
2019-03-30T15:52:47.448Z,16.88
2019-03-30T15:57:51.281Z,16.67
2019-03-30T16:02:55.259Z,16.64
2019-03-30T16:07:59.160Z,16.50
2019-03-30T16:13:03.034Z,16.38
2019-03-30T16:18:06.935Z,16.20
2019-03-30T16:23:10.737Z,15.96
2019-03-30T16:28:14.527Z,15.92
2019-03-30T16:33:18.371Z,15.83
2019-03-30T16:38:22.336Z,15.68
2019-03-30T16:43:26.159Z,15.51
2019-03-30T16:48:29.978Z,15.42
2019-03-30T16:53:33.845Z,15.29
2019-03-30T16:58:38.000Z,15.13
2019-03-30T17:03:41.776Z,14.97
2019-03-30T17:08:46.021Z,14.77
2019-03-30T17:13:49.913Z,14.62
2019-03-30T17:18:53.681Z,14.38
2019-03-30T17:23:57.836Z,14.05
2019-03-30T17:29:01.743Z,13.76
2019-03-30T17:34:05.632Z,13.49
2019-03-30T17:39:11.216Z,13.28
2019-03-30T17:44:15.066Z,13.06
2019-03-30T17:49:18.915Z,12.83
2019-03-30T17:54:22.716Z,12.65
2019-03-30T17:59:28.304Z,12.45
2019-03-30T18:04:32.189Z,12.28
2019-03-30T18:09:36.060Z,11.97
2019-03-30T18:14:40.071Z,11.72
2019-03-30T18:19:44.101Z,11.67
2019-03-30T18:24:48.412Z,11.51
2019-03-30T18:29:52.584Z,11.30
2019-03-30T18:34:57.521Z,11.20
2019-03-30T18:40:01.992Z,11.09
2019-03-30T18:45:07.543Z,10.91
2019-03-30T18:50:13.097Z,10.82
2019-03-30T18:55:22.931Z,10.71
2019-03-30T19:00:27.499Z,10.46
2019-03-30T19:05:31.347Z,10.17
2019-03-30T19:10:35.108Z,9.67
2019-03-30T19:15:39.191Z,9.45
2019-03-30T19:20:43.057Z,9.41
2019-03-30T19:25:46.865Z,9.25
2019-03-30T19:30:50.978Z,9.48
2019-03-30T19:35:54.859Z,9.42
2019-03-30T19:40:58.789Z,9.13
2019-03-30T19:46:02.999Z,8.92
2019-03-30T19:51:06.825Z,8.90
2019-03-30T19:56:10.732Z,9.10
2019-03-30T20:01:14.640Z,9.48
2019-03-30T20:06:18.822Z,8.60
2019-03-30T20:11:22.670Z,7.74
2019-03-30T20:16:26.496Z,7.75
2019-03-30T20:21:30.298Z,8.25
2019-03-30T20:26:34.416Z,8.20
2019-03-30T20:31:38.609Z,8.25
2019-03-30T20:36:42.406Z,8.09
2019-03-30T20:41:46.283Z,7.31
2019-03-30T20:46:50.560Z,6.92
2019-03-30T20:51:54.928Z,7.04
2019-03-30T20:56:58.966Z,7.61
2019-03-30T21:02:02.710Z,7.79
2019-03-30T21:07:06.474Z,7.01
2019-03-30T21:12:10.250Z,6.66
2019-03-30T21:17:14.062Z,6.25
2019-03-30T21:22:17.978Z,6.15
2019-03-30T21:27:21.938Z,6.49
2019-03-30T21:32:25.812Z,6.06
2019-03-30T21:37:29.677Z,5.66
2019-03-30T21:42:33.901Z,5.90
2019-03-30T21:47:38.281Z,6.25
2019-03-30T21:52:42.122Z,6.20
2019-03-30T21:57:45.897Z,6.48
2019-03-30T22:02:49.744Z,6.51
2019-03-30T22:07:53.540Z,6.69
2019-03-30T22:12:57.340Z,6.75
2019-03-30T22:18:01.328Z,6.64
2019-03-30T22:23:05.172Z,6.54
2019-03-30T22:28:08.942Z,6.38
2019-03-30T22:33:13.110Z,6.25
2019-03-30T22:38:16.903Z,6.21
2019-03-30T22:43:20.669Z,6.12
2019-03-30T22:48:24.521Z,6.09
2019-03-30T22:53:28.296Z,5.83
2019-03-30T22:58:32.153Z,5.67
2019-03-30T23:03:36.042Z,5.42
2019-03-30T23:08:40.392Z,5.38
2019-03-30T23:13:44.278Z,5.63
2019-03-30T23:18:48.091Z,5.71
2019-03-30T23:23:51.870Z,5.42
2019-03-30T23:28:59.191Z,5.37
2019-03-30T23:34:01.425Z,5.35
2019-03-30T23:39:07.635Z,5.43
2019-03-30T23:44:11.395Z,5.47
2019-03-30T23:49:15.588Z,5.53
2019-03-30T23:54:19.523Z,4.50
2019-03-30T23:59:23.314Z,4.90
